Aviation Digital Data Service (ADDS)

Output produced by METARs form (0416 UTC 26 June 2019)
found at http://www.aviationweather.gov/metar/data/
 
Forecast for: OIMM (MASHHAD (AFB/CIV, IR)
Text: TAF OIMM 252330Z 2600/2706 32008KT CAVOK
Forecast period: 0000 UTC 26 June 2019 to 0600 UTC 27 June 2019
Forecast type: FROM: standard forecast or significant change
Winds: from the NW (320 degrees) at 9 MPH (8 knots; 4.1 m/s)
Visibility: 6 or more miles 10+ km)
Ceiling: unknown
Clouds: missing
Weather: NSW  (no significant weather)
Text: TEMPO 2609/2615 06018KT
Forecast period: 0900 to 1500 UTC 26 June 2019
Forecast type: TEMPORARY: The following changes expected for less than half the time period
Winds: from the ENE (60 degrees) at 21 MPH (18 knots; 9.3 m/s)
Visibility: missing
Ceiling: unknown
Clouds: missing
Weather: no significant weather forecast for this period